createdAt,value
2022-09-01T00:00:50.446Z,12.73
2022-09-01T00:01:50.745Z,12.73
2022-09-01T00:02:47.961Z,16.05
2022-09-01T00:03:48.724Z,16.55
2022-09-01T00:04:46.470Z,15.27
2022-09-01T00:05:46.326Z,15.23
2022-09-01T00:06:43.865Z,16.23
2022-09-01T00:07:40.578Z,16.48
2022-09-01T00:08:37.260Z,18.05
2022-09-01T00:09:34.544Z,18.20
2022-09-01T00:10:31.464Z,18.65
2022-09-01T00:11:29.444Z,18.92
2022-09-01T00:12:26.602Z,20.60
2022-09-01T00:13:23.248Z,20.17
2022-09-01T00:14:29.914Z,19.73
2022-09-01T00:15:27.720Z,18.80
2022-09-01T00:16:24.887Z,19.15
2022-09-01T00:17:22.283Z,17.45
2022-09-01T00:18:19.818Z,17.15
2022-09-01T00:19:16.815Z,17.90
2022-09-01T00:20:18.223Z,18.45
2022-09-01T00:21:28.004Z,15.77
2022-09-01T00:22:24.682Z,16.48
2022-09-01T00:23:21.382Z,13.68
2022-09-01T00:24:19.819Z,14.52
2022-09-01T00:25:18.894Z,13.40
2022-09-01T00:26:15.679Z,14.40
2022-09-01T00:27:12.337Z,13.60
2022-09-01T00:28:09.633Z,15.63
2022-09-01T00:29:07.174Z,15.00
2022-09-01T00:30:04.448Z,14.65
2022-09-01T00:31:01.663Z,14.23
2022-09-01T00:31:58.499Z,14.85
2022-09-01T00:32:55.111Z,16.52
2022-09-01T00:33:51.842Z,14.40
2022-09-01T00:34:48.532Z,17.02
2022-09-01T00:35:45.397Z,19.15
2022-09-01T00:36:42.478Z,15.30
2022-09-01T00:37:39.129Z,15.43
2022-09-01T00:38:35.968Z,18.13
2022-09-01T00:39:32.791Z,19.13
2022-09-01T00:40:29.559Z,17.58
2022-09-01T00:41:30.140Z,17.85
2022-09-01T00:42:27.145Z,15.02
2022-09-01T00:43:41.891Z,15.40
2022-09-01T00:44:39.302Z,19.08
2022-09-01T00:45:36.049Z,17.58
2022-09-01T00:46:49.543Z,19.27
2022-09-01T00:47:46.969Z,18.33
2022-09-01T00:48:43.932Z,20.13
2022-09-01T00:49:45.089Z,21.15
2022-09-01T00:50:42.191Z,21.45
2022-09-01T00:51:42.547Z,17.02
2022-09-01T00:52:44.962Z,15.50
2022-09-01T00:53:44.012Z,15.05
2022-09-01T00:54:45.873Z,17.00
2022-09-01T00:55:42.568Z,20.90
2022-09-01T00:56:41.042Z,21.45
2022-09-01T00:57:44.214Z,21.55
2022-09-01T00:58:41.451Z,24.17
2022-09-01T00:59:46.040Z,23.40
2022-09-01T01:00:44.719Z,24.17
2022-09-01T01:01:41.488Z,25.77
2022-09-01T01:02:40.603Z,26.48
2022-09-01T01:03:39.356Z,26.98
2022-09-01T01:04:36.088Z,22.08
2022-09-01T01:05:37.079Z,23.58
2022-09-01T01:06:33.843Z,24.77
2022-09-01T01:07:30.877Z,23.52
2022-09-01T01:08:34.336Z,25.30
2022-09-01T01:09:35.851Z,25.65
2022-09-01T01:10:35.970Z,26.80
2022-09-01T01:11:32.736Z,27.17
2022-09-01T01:12:30.911Z,26.85
2022-09-01T01:13:28.840Z,26.67
2022-09-01T01:14:27.789Z,26.88
2022-09-01T01:15:24.501Z,26.05
2022-09-01T01:16:23.032Z,28.17
2022-09-01T01:17:21.733Z,28.33
2022-09-01T01:18:22.985Z,27.92
2022-09-01T01:19:43.016Z,26.67
2022-09-01T01:20:59.206Z,27.85
2022-09-01T01:22:15.433Z,28.63
2022-09-01T01:23:28.892Z,28.00
2022-09-01T01:24:26.580Z,29.15
2022-09-01T01:25:24.020Z,29.52
2022-09-01T01:26:20.864Z,27.88
2022-09-01T01:27:21.891Z,25.20
2022-09-01T01:28:26.885Z,19.80
2022-09-01T01:29:24.182Z,19.73
2022-09-01T01:30:21.043Z,21.63
2022-09-01T01:31:23.024Z,21.23
2022-09-01T01:32:20.732Z,16.48
2022-09-01T01:33:17.573Z,17.65
2022-09-01T01:34:17.848Z,16.30
2022-09-01T01:35:17.457Z,17.63
2022-09-01T01:36:36.386Z,16.50
2022-09-01T01:37:36.382Z,19.38
2022-09-01T01:38:35.401Z,18.05
2022-09-01T01:39:32.644Z,17.45
2022-09-01T01:40:30.109Z,19.95
2022-09-01T01:41:27.023Z,18.00
2022-09-01T01:42:25.205Z,18.50
2022-09-01T01:43:24.038Z,19.65
2022-09-01T01:44:27.964Z,19.25
2022-09-01T01:45:25.422Z,16.75
2022-09-01T01:46:22.795Z,18.63
2022-09-01T01:47:20.492Z,16.98
2022-09-01T01:48:24.683Z,16.77
2022-09-01T01:49:25.565Z,17.75
2022-09-01T01:50:25.277Z,17.50
2022-09-01T01:51:26.858Z,20.05
2022-09-01T01:52:26.256Z,16.20
2022-09-01T01:53:23.833Z,16.58
2022-09-01T01:54:20.549Z,16.60
2022-09-01T01:55:19.420Z,18.67
2022-09-01T01:56:18.526Z,16.23
2022-09-01T01:57:18.337Z,18.10
2022-09-01T01:58:15.843Z,17.08
2022-09-01T01:59:14.901Z,15.88
2022-09-01T02:00:13.032Z,18.48
2022-09-01T02:01:11.900Z,19.52
2022-09-01T02:02:10.491Z,19.33
2022-09-01T02:03:07.562Z,16.67
2022-09-01T02:04:05.766Z,16.05
2022-09-01T02:05:02.563Z,17.25
2022-09-01T02:06:04.766Z,16.65
2022-09-01T02:07:01.514Z,17.17
2022-09-01T02:08:04.052Z,18.25
2022-09-01T02:09:58.384Z,13.30
2022-09-01T02:10:57.884Z,18.48
2022-09-01T02:11:57.172Z,16.02
2022-09-01T02:12:54.048Z,17.83
2022-09-01T02:13:54.470Z,18.10
2022-09-01T02:14:53.153Z,15.45
2022-09-01T02:15:53.977Z,16.58
2022-09-01T02:16:50.778Z,15.60
2022-09-01T02:17:48.946Z,21.10
2022-09-01T02:18:49.952Z,19.73
2022-09-01T02:19:47.525Z,16.88
2022-09-01T02:20:49.488Z,17.52
2022-09-01T02:21:55.936Z,16.85
2022-09-01T02:22:55.460Z,18.85
2022-09-01T02:24:02.143Z,17.50
2022-09-01T02:25:01.007Z,18.40
2022-09-01T02:26:18.165Z,18.50
2022-09-01T02:27:15.820Z,19.58
2022-09-01T02:28:16.158Z,20.15
2022-09-01T02:29:21.210Z,21.30
2022-09-01T02:30:17.976Z,24.00
2022-09-01T02:31:14.726Z,24.42
2022-09-01T02:32:11.785Z,22.58
2022-09-01T02:33:09.260Z,24.00
2022-09-01T02:34:10.728Z,23.83
2022-09-01T02:35:10.128Z,23.08
2022-09-01T02:36:12.808Z,24.38
2022-09-01T02:37:09.416Z,25.73
2022-09-01T02:38:07.025Z,26.13
2022-09-01T02:39:03.972Z,26.20
2022-09-01T02:40:00.667Z,25.15
2022-09-01T02:40:58.517Z,24.85
2022-09-01T02:41:56.125Z,26.25
2022-09-01T02:42:55.439Z,24.95
2022-09-01T02:43:54.275Z,24.80
2022-09-01T02:44:50.955Z,25.08
2022-09-01T02:45:52.948Z,21.92
2022-09-01T02:46:50.583Z,24.80
2022-09-01T02:47:48.592Z,24.73
2022-09-01T02:48:46.387Z,26.33
2022-09-01T02:49:43.134Z,21.17
2022-09-01T02:50:41.562Z,24.02
2022-09-01T02:51:38.615Z,28.23
2022-09-01T02:52:38.208Z,30.50
2022-09-01T02:53:36.046Z,34.20
2022-09-01T02:54:33.261Z,30.75
2022-09-01T02:55:29.889Z,32.50
2022-09-01T02:56:27.580Z,31.17
2022-09-01T02:57:24.591Z,33.50
2022-09-01T02:58:22.894Z,33.08
2022-09-01T02:59:24.720Z,33.72
2022-09-01T03:00:22.921Z,31.65
2022-09-01T03:01:38.064Z,27.08
2022-09-01T03:02:36.021Z,21.83
2022-09-01T03:03:35.832Z,30.17
2022-09-01T03:04:35.514Z,30.98
2022-09-01T03:05:34.634Z,28.65
2022-09-01T03:06:34.631Z,29.65
2022-09-01T03:07:32.063Z,30.08
2022-09-01T03:08:28.704Z,30.75
2022-09-01T03:09:25.384Z,31.58
2022-09-01T03:10:27.173Z,28.17
2022-09-01T03:11:24.697Z,25.83
2022-09-01T03:12:21.393Z,29.95
2022-09-01T03:13:21.994Z,31.90
2022-09-01T03:14:19.086Z,30.20
2022-09-01T03:15:15.756Z,32.58
2022-09-01T03:16:13.000Z,30.67
2022-09-01T03:17:09.783Z,30.55
2022-09-01T03:18:08.548Z,31.33
2022-09-01T03:19:11.153Z,34.50
2022-09-01T03:21:06.231Z,33.47
2022-09-01T03:22:02.971Z,31.98
2022-09-01T03:23:01.337Z,33.50
2022-09-01T03:23:59.461Z,31.98
2022-09-01T03:24:57.709Z,28.75
2022-09-01T03:25:54.716Z,24.67
2022-09-01T03:26:51.749Z,28.60
2022-09-01T03:27:48.384Z,29.95
2022-09-01T03:28:46.264Z,30.55
2022-09-01T03:29:42.949Z,29.92
2022-09-01T03:30:46.041Z,28.92
2022-09-01T03:31:42.995Z,31.15
2022-09-01T03:32:39.893Z,28.58
2022-09-01T03:33:36.921Z,29.40
2022-09-01T03:34:34.557Z,31.55
2022-09-01T03:35:32.095Z,29.30
2022-09-01T03:36:31.039Z,30.25
2022-09-01T03:37:27.745Z,31.52
2022-09-01T03:38:25.606Z,27.48
2022-09-01T03:39:22.384Z,24.45
2022-09-01T03:40:19.403Z,23.00
2022-09-01T03:41:18.644Z,23.83
2022-09-01T03:42:25.975Z,22.10
2022-09-01T03:43:27.223Z,31.25
2022-09-01T03:44:35.422Z,31.80
2022-09-01T03:45:38.513Z,32.42
2022-09-01T03:46:37.181Z,29.58
2022-09-01T03:47:33.926Z,25.65
2022-09-01T03:48:31.757Z,29.00
2022-09-01T03:49:28.651Z,24.40
2022-09-01T03:50:25.605Z,24.33
2022-09-01T03:51:24.058Z,21.52
2022-09-01T03:52:21.080Z,22.42
2022-09-01T03:53:20.781Z,22.02
2022-09-01T03:54:17.850Z,27.40
2022-09-01T03:55:18.420Z,25.73
2022-09-01T03:56:15.927Z,28.13
2022-09-01T03:57:13.889Z,34.42
2022-09-01T03:58:14.794Z,34.30
2022-09-01T03:59:17.295Z,27.60
2022-09-01T04:00:21.060Z,25.70
2022-09-01T04:01:19.279Z,32.20
2022-09-01T04:02:15.992Z,32.25
2022-09-01T04:03:13.920Z,30.00
2022-09-01T04:04:14.959Z,29.20
2022-09-01T04:05:11.690Z,26.55
2022-09-01T04:06:10.195Z,34.20
2022-09-01T04:07:07.490Z,37.42
2022-09-01T04:08:07.966Z,33.00
2022-09-01T04:09:04.762Z,37.97
2022-09-01T04:10:01.473Z,37.15
2022-09-01T04:11:02.877Z,29.83
2022-09-01T04:11:59.841Z,25.67
2022-09-01T04:12:59.146Z,31.25
2022-09-01T04:13:55.758Z,32.05
2022-09-01T04:14:52.367Z,34.85
2022-09-01T04:15:50.053Z,37.88
2022-09-01T04:17:05.458Z,41.35
2022-09-01T04:18:09.743Z,37.30
2022-09-01T04:19:16.010Z,35.60
2022-09-01T04:20:13.102Z,34.72
2022-09-01T04:21:10.577Z,30.33
2022-09-01T04:22:08.111Z,36.85
2022-09-01T04:23:10.866Z,35.25
2022-09-01T04:24:09.088Z,32.88
2022-09-01T04:25:06.777Z,38.58
2022-09-01T04:26:10.046Z,36.90
2022-09-01T04:27:07.681Z,35.35
2022-09-01T04:28:13.037Z,34.20
2022-09-01T04:29:11.756Z,36.42
2022-09-01T04:30:11.833Z,34.78
2022-09-01T04:31:15.013Z,38.42
2022-09-01T04:32:15.857Z,32.00
2022-09-01T04:33:13.163Z,30.02
2022-09-01T04:34:16.327Z,32.78
2022-09-01T04:35:17.210Z,36.45
2022-09-01T04:36:19.665Z,32.47
2022-09-01T04:37:18.876Z,24.90
2022-09-01T04:38:15.902Z,28.83
2022-09-01T04:39:13.464Z,28.55
2022-09-01T04:40:10.711Z,24.63
2022-09-01T04:41:09.517Z,26.20
2022-09-01T04:42:09.080Z,27.40
2022-09-01T04:43:09.228Z,26.52
2022-09-01T04:44:07.198Z,29.60
2022-09-01T04:45:10.029Z,31.00
2022-09-01T04:46:07.566Z,31.88
2022-09-01T04:47:07.106Z,31.20
2022-09-01T04:48:05.535Z,32.63
2022-09-01T04:49:13.158Z,33.50
2022-09-01T04:50:14.821Z,31.25
2022-09-01T04:51:12.758Z,32.87
2022-09-01T04:52:09.491Z,31.20
2022-09-01T04:53:06.847Z,32.00
2022-09-01T04:54:03.748Z,32.65
2022-09-01T04:55:00.690Z,32.35
2022-09-01T04:56:04.580Z,34.00
2022-09-01T04:57:01.249Z,33.03
2022-09-01T04:58:08.338Z,33.53
2022-09-01T04:59:08.174Z,33.53
2022-09-01T05:00:05.387Z,33.75
2022-09-01T05:01:06.563Z,33.88
2022-09-01T05:02:03.273Z,33.75
2022-09-01T05:03:06.161Z,33.78
2022-09-01T05:04:04.080Z,34.65
2022-09-01T05:05:03.542Z,32.95
2022-09-01T05:06:02.567Z,33.20
2022-09-01T05:07:01.209Z,31.75
2022-09-01T05:07:58.012Z,31.50
2022-09-01T05:08:57.879Z,29.60
2022-09-01T05:09:58.071Z,29.05
2022-09-01T05:10:57.466Z,33.05
2022-09-01T05:11:54.111Z,36.05
2022-09-01T05:12:52.408Z,35.53
2022-09-01T05:13:49.983Z,37.53
2022-09-01T05:14:48.623Z,34.72
2022-09-01T05:15:47.164Z,34.28
2022-09-01T05:16:45.081Z,34.10
2022-09-01T05:17:42.051Z,33.75
2022-09-01T05:18:47.771Z,33.38
2022-09-01T05:19:47.821Z,36.20
2022-09-01T05:20:44.609Z,34.42
2022-09-01T05:21:45.707Z,35.90
2022-09-01T05:22:42.423Z,36.58
2022-09-01T05:23:42.640Z,36.70
2022-09-01T05:24:42.120Z,35.80
2022-09-01T05:25:42.008Z,34.05
2022-09-01T05:26:40.525Z,32.95
2022-09-01T05:27:39.773Z,34.28
2022-09-01T05:28:36.477Z,34.10
2022-09-01T05:29:34.328Z,30.98
2022-09-01T05:30:31.070Z,32.30
2022-09-01T05:31:29.727Z,31.17
2022-09-01T05:32:27.573Z,31.70
2022-09-01T05:33:24.734Z,29.92
2022-09-01T05:34:29.821Z,28.20
2022-09-01T05:35:32.403Z,28.50
2022-09-01T05:36:33.897Z,29.02
2022-09-01T05:37:30.555Z,25.85
2022-09-01T05:38:27.189Z,25.42
2022-09-01T05:39:25.072Z,25.95
2022-09-01T05:40:22.094Z,25.83
2022-09-01T05:41:20.408Z,24.20
2022-09-01T05:42:17.725Z,24.05
2022-09-01T05:43:14.907Z,26.50
2022-09-01T05:44:14.179Z,28.35
2022-09-01T05:45:14.384Z,24.63
2022-09-01T05:46:11.071Z,26.80
2022-09-01T05:47:09.711Z,25.63
2022-09-01T05:48:12.645Z,26.45
2022-09-01T05:49:14.010Z,27.10
2022-09-01T05:50:14.621Z,25.35
2022-09-01T05:51:40.209Z,26.90
2022-09-01T05:52:34.385Z,24.90
2022-09-01T05:53:31.062Z,24.35
2022-09-01T05:54:29.265Z,23.90
2022-09-01T05:55:27.741Z,22.42
2022-09-01T05:56:27.228Z,23.13
2022-09-01T05:57:34.340Z,22.20
2022-09-01T05:59:22.450Z,23.77
2022-09-01T05:59:53.899Z,21.02
2022-09-01T06:01:50.478Z,21.90
2022-09-01T06:02:47.428Z,21.80
2022-09-01T06:03:44.774Z,18.70
2022-09-01T06:04:42.190Z,21.88
2022-09-01T06:05:39.860Z,20.85
2022-09-01T06:07:07.186Z,22.30
2022-09-01T06:08:07.216Z,22.67
2022-09-01T06:09:06.966Z,21.77
2022-09-01T06:10:04.454Z,23.20
2022-09-01T06:11:01.490Z,23.70
2022-09-01T06:11:58.098Z,19.95
2022-09-01T06:12:54.847Z,22.08
2022-09-01T06:13:56.930Z,23.55
2022-09-01T06:14:56.676Z,22.30
2022-09-01T06:15:58.348Z,24.30
2022-09-01T06:16:55.013Z,21.92
2022-09-01T06:17:52.509Z,25.08
2022-09-01T06:18:50.662Z,24.08
2022-09-01T06:19:58.647Z,22.38
2022-09-01T06:20:55.809Z,23.15
2022-09-01T06:21:53.458Z,22.23
2022-09-01T06:22:52.677Z,24.30
2022-09-01T06:23:54.146Z,22.27
2022-09-01T06:24:56.645Z,22.60
2022-09-01T06:25:59.918Z,23.30
2022-09-01T06:26:56.656Z,22.58
2022-09-01T06:27:54.194Z,24.10
2022-09-01T06:28:55.158Z,22.67
2022-09-01T06:29:55.329Z,23.80
2022-09-01T06:30:53.740Z,22.40
2022-09-01T06:31:52.905Z,22.63
2022-09-01T06:32:49.793Z,22.70
2022-09-01T06:33:48.716Z,21.60
2022-09-01T06:34:47.774Z,20.98
2022-09-01T06:35:47.217Z,21.13
2022-09-01T06:36:45.844Z,18.92
2022-09-01T06:37:44.032Z,19.52
2022-09-01T06:38:41.318Z,18.83
2022-09-01T06:39:38.401Z,21.83
2022-09-01T06:40:39.882Z,21.90
2022-09-01T06:41:38.911Z,23.33
2022-09-01T06:42:35.562Z,22.38
2022-09-01T06:43:33.546Z,22.38
2022-09-01T06:44:32.137Z,22.95
2022-09-01T06:45:28.817Z,24.02
2022-09-01T06:46:28.230Z,23.58
2022-09-01T06:47:24.881Z,21.23
2022-09-01T06:48:23.640Z,22.27
2022-09-01T06:49:24.695Z,23.45
2022-09-01T06:51:40.073Z,23.15
2022-09-01T06:53:59.667Z,22.10
2022-09-01T06:54:57.936Z,23.70
2022-09-01T06:55:56.312Z,30.77
2022-09-01T06:56:53.592Z,36.78
2022-09-01T06:58:09.534Z,35.83
2022-09-01T06:59:13.006Z,24.40
2022-09-01T07:00:20.278Z,21.73
2022-09-01T07:01:19.840Z,26.88
2022-09-01T07:02:18.711Z,22.17
2022-09-01T07:03:16.689Z,23.92
2022-09-01T07:04:18.903Z,24.67
2022-09-01T07:08:12.394Z,21.80
2022-09-01T07:09:47.083Z,22.95
2022-09-01T07:10:27.275Z,22.20
2022-09-01T07:14:22.054Z,19.80
2022-09-01T07:16:51.869Z,21.60
2022-09-01T07:18:58.371Z,21.33
2022-09-01T07:20:25.271Z,22.60
2022-09-01T07:21:40.887Z,20.55
2022-09-01T07:23:03.227Z,22.08
2022-09-01T07:24:13.194Z,20.48
2022-09-01T07:25:12.842Z,22.15
2022-09-01T07:26:11.828Z,21.30
2022-09-01T07:27:10.742Z,21.13
2022-09-01T07:28:08.659Z,22.88
2022-09-01T07:29:07.203Z,20.40
2022-09-01T07:30:04.986Z,19.75
2022-09-01T07:33:44.258Z,20.40
2022-09-01T07:34:41.377Z,18.48
2022-09-01T07:36:24.956Z,19.95
2022-09-01T07:38:03.566Z,21.65
2022-09-01T07:39:52.166Z,20.13
2022-09-01T07:43:32.598Z,21.02
2022-09-01T07:44:30.832Z,18.15
2022-09-01T07:45:29.046Z,17.88
2022-09-01T07:46:41.311Z,19.42
2022-09-01T07:47:54.153Z,17.50
2022-09-01T07:49:28.882Z,18.38
2022-09-01T07:51:36.544Z,20.15
2022-09-01T07:52:43.233Z,18.73
2022-09-01T07:53:40.089Z,18.40
2022-09-01T07:54:37.474Z,16.95
2022-09-01T07:55:34.891Z,15.02
2022-09-01T07:56:34.192Z,16.63
2022-09-01T07:57:32.994Z,16.77
2022-09-01T07:58:33.657Z,16.13
2022-09-01T07:59:31.303Z,17.55
2022-09-01T08:00:31.169Z,18.77
2022-09-01T08:01:28.855Z,16.67
2022-09-01T08:02:28.077Z,17.20
2022-09-01T08:03:25.632Z,16.08
2022-09-01T08:04:23.133Z,18.42
2022-09-01T08:05:26.362Z,15.85
2022-09-01T08:06:28.014Z,15.23
2022-09-01T08:07:24.996Z,16.30
2022-09-01T08:08:25.001Z,15.40
2022-09-01T08:09:35.135Z,15.60
2022-09-01T08:10:36.873Z,16.88
2022-09-01T08:12:01.027Z,16.23
2022-09-01T08:12:57.691Z,15.05
2022-09-01T08:13:59.055Z,15.43
2022-09-01T08:16:19.533Z,16.30
2022-09-01T08:17:18.075Z,15.43
2022-09-01T08:18:47.980Z,15.00
2022-09-01T08:19:47.100Z,17.55
2022-09-01T08:20:48.307Z,14.98
2022-09-01T08:21:45.120Z,14.75
2022-09-01T08:22:41.819Z,15.43
2022-09-01T08:23:39.085Z,15.45
2022-09-01T08:24:35.712Z,14.43
2022-09-01T08:25:34.383Z,14.52
2022-09-01T08:26:31.023Z,12.93
2022-09-01T08:27:27.723Z,13.50
2022-09-01T08:28:27.465Z,12.18
2022-09-01T08:29:24.229Z,11.95
2022-09-01T08:30:20.917Z,12.07
2022-09-01T08:31:19.334Z,11.45
2022-09-01T08:32:17.235Z,12.82
2022-09-01T08:33:14.743Z,11.10
2022-09-01T08:34:12.668Z,11.52
2022-09-01T08:35:11.523Z,12.90
2022-09-01T08:36:09.684Z,11.75
2022-09-01T08:37:06.941Z,13.13
2022-09-01T08:38:03.560Z,10.55
2022-09-01T08:39:00.231Z,11.77
2022-09-01T08:39:57.030Z,11.27
2022-09-01T08:40:59.193Z,11.00
2022-09-01T08:42:08.851Z,9.93
2022-09-01T08:43:18.826Z,11.20
2022-09-01T08:45:08.308Z,11.75
2022-09-01T08:46:19.719Z,9.80
2022-09-01T08:47:28.740Z,10.70
2022-09-01T08:49:23.641Z,10.10
2022-09-01T08:49:54.611Z,9.30
2022-09-01T08:51:08.467Z,10.23
2022-09-01T08:52:35.009Z,9.05
2022-09-01T08:53:41.142Z,8.48
2022-09-01T08:54:52.180Z,9.00
2022-09-01T08:55:54.972Z,8.00
2022-09-01T08:56:56.165Z,8.10
2022-09-01T08:57:59.127Z,9.77
2022-09-01T08:58:56.718Z,8.88
2022-09-01T09:13:16.817Z,8.27
2022-09-01T09:14:34.879Z,7.78
2022-09-01T09:15:45.037Z,7.95
2022-09-01T09:16:45.320Z,7.07
2022-09-01T09:17:52.221Z,7.82
2022-09-01T09:18:57.848Z,7.30
2022-09-01T09:19:54.723Z,6.35
2022-09-01T09:20:52.572Z,6.60
2022-09-01T09:21:51.765Z,6.18
2022-09-01T09:22:49.048Z,6.95
2022-09-01T09:23:48.662Z,6.82
2022-09-01T09:25:06.803Z,6.05
2022-09-01T09:26:03.715Z,6.63
2022-09-01T09:27:00.520Z,7.55
2022-09-01T09:28:00.830Z,7.68
2022-09-01T09:28:57.865Z,7.15
2022-09-01T09:29:56.744Z,6.60
2022-09-01T09:31:28.668Z,6.03
2022-09-01T09:33:19.933Z,5.72
2022-09-01T09:34:01.754Z,6.80
2022-09-01T09:35:36.722Z,6.65
2022-09-01T09:36:36.139Z,6.00
2022-09-01T09:37:32.853Z,6.45
2022-09-01T09:38:30.422Z,6.90
2022-09-01T09:39:27.107Z,6.53
2022-09-01T09:40:27.185Z,6.70
2022-09-01T09:41:27.108Z,6.65
2022-09-01T09:42:33.400Z,6.80
2022-09-01T09:43:44.543Z,6.70
2022-09-01T09:44:51.233Z,6.00
2022-09-01T09:45:48.422Z,6.25
2022-09-01T09:46:48.852Z,6.18
2022-09-01T09:47:47.192Z,6.00
2022-09-01T09:48:43.870Z,6.63
2022-09-01T09:49:44.214Z,6.25
2022-09-01T09:50:44.107Z,6.65
2022-09-01T09:51:44.726Z,6.78
2022-09-01T09:52:41.549Z,5.57
2022-09-01T09:53:38.241Z,6.38
2022-09-01T09:54:37.380Z,5.97
2022-09-01T09:55:34.278Z,6.07
2022-09-01T09:56:31.541Z,6.13
2022-09-01T09:57:31.433Z,5.93
2022-09-01T09:58:42.904Z,6.35
2022-09-01T10:00:00.655Z,6.10
2022-09-01T10:01:07.294Z,6.53
2022-09-01T10:02:36.098Z,5.65
2022-09-01T10:03:50.435Z,6.38
2022-09-01T10:04:47.214Z,5.85
2022-09-01T10:05:47.933Z,6.00
2022-09-01T10:06:47.923Z,6.95
2022-09-01T10:07:44.820Z,5.90
2022-09-01T10:08:48.008Z,5.65
2022-09-01T10:09:44.840Z,5.75
2022-09-01T10:10:56.394Z,6.10
2022-09-01T10:11:57.488Z,5.32
2022-09-01T10:12:55.755Z,6.57
2022-09-01T10:13:54.085Z,6.15
2022-09-01T10:15:12.406Z,5.95
2022-09-01T10:16:23.318Z,5.88
2022-09-01T10:17:28.731Z,6.00
2022-09-01T10:18:40.615Z,6.18
2022-09-01T10:19:42.069Z,6.00
2022-09-01T10:20:41.666Z,7.20
2022-09-01T10:21:41.875Z,6.32
2022-09-01T10:22:39.786Z,6.07
2022-09-01T10:23:38.810Z,5.68
2022-09-01T10:24:39.097Z,5.80
2022-09-01T10:25:42.642Z,5.93
2022-09-01T10:26:41.699Z,5.93
2022-09-01T10:27:42.189Z,6.55
2022-09-01T10:28:52.980Z,6.00
2022-09-01T10:31:20.236Z,6.53
2022-09-01T10:32:35.099Z,6.00
2022-09-01T10:33:36.978Z,6.32
2022-09-01T10:34:37.380Z,6.00
2022-09-01T10:35:41.451Z,5.78
2022-09-01T10:36:38.569Z,5.82
2022-09-01T10:37:35.636Z,5.65
2022-09-01T10:38:32.428Z,5.78
2022-09-01T10:39:31.131Z,6.53
2022-09-01T10:40:31.661Z,5.47
2022-09-01T10:42:00.165Z,6.13
2022-09-01T10:43:18.937Z,6.40
2022-09-01T10:44:21.859Z,5.70
2022-09-01T10:45:38.203Z,6.95
2022-09-01T10:46:40.713Z,6.15
2022-09-01T10:47:40.292Z,6.30
2022-09-01T10:48:48.415Z,6.30
2022-09-01T10:49:51.616Z,5.85
2022-09-01T10:50:53.634Z,6.70
2022-09-01T10:51:55.113Z,5.65
2022-09-01T10:52:54.894Z,6.32
2022-09-01T10:54:01.824Z,6.57
2022-09-01T10:55:02.993Z,5.60
2022-09-01T10:56:20.007Z,6.72
2022-09-01T10:57:49.498Z,6.20
2022-09-01T10:59:43.295Z,5.85
2022-09-01T11:02:35.898Z,6.32
2022-09-01T11:03:41.037Z,6.10
2022-09-01T11:04:47.256Z,5.65
2022-09-01T11:06:11.432Z,6.30
2022-09-01T11:08:00.188Z,5.63
2022-09-01T11:09:04.568Z,6.78
2022-09-01T11:10:32.417Z,5.88
2022-09-01T11:11:47.409Z,6.22
2022-09-01T11:13:01.644Z,6.05
2022-09-01T11:13:59.193Z,5.90
2022-09-01T11:15:23.007Z,5.85
2022-09-01T11:16:48.119Z,5.28
2022-09-01T11:17:46.130Z,7.32
2022-09-01T11:18:43.579Z,6.70
2022-09-01T11:20:06.824Z,5.80
2022-09-01T11:21:34.002Z,6.15
2022-09-01T11:22:33.412Z,4.95
2022-09-01T11:23:31.487Z,5.70
2022-09-01T11:24:58.021Z,5.75
2022-09-01T11:27:48.787Z,5.72
2022-09-01T11:28:45.738Z,5.47
2022-09-01T11:29:58.857Z,5.15
2022-09-01T11:31:08.663Z,6.75
2022-09-01T11:32:06.330Z,6.72
2022-09-01T11:33:22.632Z,5.53
2022-09-01T11:34:23.395Z,5.78
2022-09-01T11:35:23.237Z,6.25
2022-09-01T11:36:35.359Z,5.30
2022-09-01T11:37:33.469Z,5.45
2022-09-01T11:38:43.671Z,4.95
2022-09-01T11:39:49.285Z,5.03
2022-09-01T11:40:55.697Z,5.88
2022-09-01T11:41:59.674Z,5.57
2022-09-01T11:43:02.210Z,6.25
2022-09-01T11:44:02.572Z,5.65
2022-09-01T11:45:07.411Z,5.78
2022-09-01T11:46:24.926Z,5.68
2022-09-01T11:47:46.417Z,6.07
2022-09-01T11:48:51.934Z,5.50
2022-09-01T11:50:29.327Z,5.25
2022-09-01T11:51:26.294Z,5.88
2022-09-01T11:52:26.086Z,5.90
2022-09-01T11:53:24.278Z,6.07
2022-09-01T11:54:21.057Z,6.28
2022-09-01T11:55:30.130Z,5.68
2022-09-01T11:56:28.741Z,5.88
2022-09-01T11:57:25.420Z,5.75
2022-09-01T11:58:27.872Z,5.45
2022-09-01T12:00:32.829Z,5.60
2022-09-01T12:01:40.305Z,5.72
2022-09-01T12:02:45.727Z,4.90
2022-09-01T12:03:43.113Z,6.20
2022-09-01T12:04:41.160Z,5.93
2022-09-01T12:05:40.995Z,5.47
2022-09-01T12:06:37.649Z,5.50
2022-09-01T12:07:39.516Z,5.03
2022-09-01T12:08:41.794Z,5.50
2022-09-01T12:09:48.123Z,5.65
2022-09-01T12:10:46.979Z,5.13
2022-09-01T12:11:43.605Z,5.40
2022-09-01T12:12:40.508Z,5.32
2022-09-01T12:13:38.548Z,5.10
2022-09-01T12:15:02.126Z,5.07
2022-09-01T12:16:18.417Z,5.38
2022-09-01T12:17:20.538Z,5.43
2022-09-01T12:18:23.512Z,5.68
2022-09-01T12:19:25.941Z,5.07
2022-09-01T12:21:43.902Z,5.55
2022-09-01T12:22:43.011Z,4.88
2022-09-01T12:23:43.426Z,5.50
2022-09-01T12:24:46.613Z,5.85
2022-09-01T12:25:44.608Z,5.50
2022-09-01T12:26:42.171Z,5.47
2022-09-01T12:27:38.968Z,5.45
2022-09-01T12:28:38.228Z,5.90
2022-09-01T12:29:35.415Z,5.43
2022-09-01T12:30:39.598Z,6.38
2022-09-01T12:31:36.539Z,6.50
2022-09-01T12:32:33.578Z,5.72
2022-09-01T12:33:31.584Z,5.57
2022-09-01T12:34:28.226Z,6.13
2022-09-01T12:35:27.231Z,5.85
2022-09-01T12:36:28.688Z,5.40
2022-09-01T12:37:27.463Z,5.07
2022-09-01T12:38:25.832Z,6.25
2022-09-01T12:39:24.545Z,5.65
2022-09-01T12:40:25.215Z,5.30
2022-09-01T12:41:28.959Z,6.03
2022-09-01T12:42:40.942Z,5.95
2022-09-01T12:43:42.603Z,6.32
2022-09-01T12:44:39.552Z,6.55
2022-09-01T12:45:43.168Z,6.32
2022-09-01T12:46:46.639Z,5.93
2022-09-01T12:47:48.450Z,5.32
2022-09-01T12:48:46.661Z,6.63
2022-09-01T12:49:50.969Z,5.45
2022-09-01T12:50:50.851Z,5.82
2022-09-01T12:51:48.685Z,5.60
2022-09-01T12:52:47.779Z,5.88
2022-09-01T12:53:53.295Z,5.57
2022-09-01T12:54:54.753Z,5.30
2022-09-01T12:56:01.523Z,6.03
2022-09-01T12:56:58.270Z,5.82
2022-09-01T12:57:59.170Z,5.85
2022-09-01T12:59:04.937Z,5.28
2022-09-01T13:00:11.533Z,5.70
2022-09-01T13:01:16.452Z,5.47
2022-09-01T13:04:12.177Z,5.78
2022-09-01T13:05:33.573Z,5.63
2022-09-01T13:06:33.459Z,5.97
2022-09-01T13:07:30.275Z,5.47
2022-09-01T13:08:30.987Z,5.60
2022-09-01T13:09:27.936Z,5.05
2022-09-01T13:10:28.557Z,5.97
2022-09-01T13:11:25.395Z,5.55
2022-09-01T13:12:22.727Z,5.63
2022-09-01T13:13:20.940Z,5.30
2022-09-01T13:14:19.044Z,6.50
2022-09-01T13:15:15.810Z,6.00
2022-09-01T13:16:13.958Z,5.60
2022-09-01T13:17:14.377Z,5.40
2022-09-01T13:18:12.147Z,5.95
2022-09-01T13:19:10.858Z,5.88
2022-09-01T13:20:08.748Z,5.72
2022-09-01T13:21:06.590Z,6.55
2022-09-01T13:22:03.234Z,6.18
2022-09-01T13:23:00.162Z,5.57
2022-09-01T13:23:56.996Z,5.72
2022-09-01T13:24:53.608Z,5.90
2022-09-01T13:25:50.475Z,5.75
2022-09-01T13:28:12.045Z,5.10
2022-09-01T13:29:08.778Z,5.57
2022-09-01T13:30:06.970Z,6.15
2022-09-01T13:32:24.071Z,6.20
2022-09-01T13:33:21.699Z,6.05
2022-09-01T13:34:22.055Z,5.70
2022-09-01T13:35:22.128Z,6.03
2022-09-01T13:37:36.423Z,5.68
2022-09-01T13:38:34.144Z,5.63
2022-09-01T13:39:31.263Z,6.03
2022-09-01T13:40:28.022Z,5.95
2022-09-01T13:41:26.180Z,6.03
2022-09-01T13:42:22.922Z,5.80
2022-09-01T13:43:28.469Z,6.57
2022-09-01T13:44:25.914Z,6.10
2022-09-01T13:45:25.452Z,5.57
2022-09-01T13:46:22.133Z,6.35
2022-09-01T13:47:34.254Z,6.32
2022-09-01T13:51:19.788Z,6.18
2022-09-01T13:52:16.494Z,6.47
2022-09-01T13:53:13.636Z,6.28
2022-09-01T13:54:10.343Z,6.55
2022-09-01T13:55:10.209Z,5.30
2022-09-01T13:56:06.943Z,5.80
2022-09-01T13:57:06.031Z,6.32
2022-09-01T13:58:02.737Z,5.63
2022-09-01T13:58:59.395Z,6.80
2022-09-01T13:59:58.764Z,5.55
2022-09-01T14:00:59.597Z,5.50
2022-09-01T14:01:56.606Z,6.75
2022-09-01T14:02:56.886Z,6.55
2022-09-01T14:03:56.067Z,5.72
2022-09-01T14:04:56.434Z,6.15
2022-09-01T14:05:53.149Z,6.13
2022-09-01T14:06:50.075Z,5.60
2022-09-01T14:07:48.909Z,4.97
2022-09-01T14:08:45.507Z,5.70
2022-09-01T14:09:42.178Z,5.38
2022-09-01T14:10:42.377Z,5.70
2022-09-01T14:11:39.840Z,6.40
2022-09-01T14:12:36.530Z,5.72